createdAt,value
2023-02-26T00:00:44.745Z,97593.97
2023-02-26T00:03:12.531Z,97592.84
2023-02-26T00:05:40.161Z,97593.34
2023-02-26T00:08:07.899Z,97589.97
2023-02-26T00:10:35.672Z,97602.88
2023-02-26T00:13:03.882Z,97594.59
2023-02-26T00:15:34.141Z,97605.84
2023-02-26T00:18:07.415Z,97606.50
2023-02-26T00:20:37.717Z,97609.56
2023-02-26T00:23:05.996Z,97606.66
2023-02-26T00:25:33.643Z,97619.56
2023-02-26T00:28:01.909Z,97614.69
2023-02-26T00:30:30.444Z,97614.41
2023-02-26T00:33:00.223Z,97616.28
2023-02-26T00:35:28.944Z,97621.22
2023-02-26T00:38:01.428Z,97616.66
2023-02-26T00:40:38.322Z,97613.75
2023-02-26T00:43:07.317Z,97616.41
2023-02-26T00:45:36.113Z,97613.25
2023-02-26T00:48:41.592Z,97613.59
2023-02-26T00:51:19.015Z,97618.97
2023-02-26T00:53:53.216Z,97614.06
2023-02-26T00:56:20.922Z,97610.69
2023-02-26T00:58:48.587Z,97624.09
2023-02-26T01:01:16.313Z,97623.88
2023-02-26T01:03:46.132Z,97622.19
2023-02-26T01:06:16.748Z,97628.50
2023-02-26T01:08:48.861Z,97628.50
2023-02-26T01:11:17.215Z,97618.00
2023-02-26T01:13:45.310Z,97617.91
2023-02-26T01:16:18.887Z,97620.81
2023-02-26T01:18:54.112Z,97622.69
2023-02-26T01:21:32.173Z,97626.03
2023-02-26T01:24:02.382Z,97621.94
2023-02-26T01:26:30.591Z,97632.16
2023-02-26T01:28:58.585Z,97620.56
2023-02-26T01:31:39.502Z,97625.06
2023-02-26T01:34:16.504Z,97626.09
2023-02-26T01:36:52.305Z,97625.28
2023-02-26T01:39:30.085Z,97633.75
2023-02-26T01:42:03.999Z,97629.38
2023-02-26T01:44:36.370Z,97630.31
2023-02-26T01:47:11.473Z,97626.88
2023-02-26T01:49:41.269Z,97628.47
2023-02-26T01:52:59.041Z,97638.63
2023-02-26T01:55:29.397Z,97637.03
2023-02-26T01:58:00.756Z,97627.91
2023-02-26T02:00:28.854Z,97639.44
2023-02-26T02:02:56.785Z,97644.56
2023-02-26T02:05:31.732Z,97640.84
2023-02-26T02:08:00.588Z,97651.06
2023-02-26T02:10:28.978Z,97642.34
2023-02-26T02:13:06.606Z,97641.59
2023-02-26T02:15:42.326Z,97642.97
2023-02-26T02:18:17.520Z,97642.03
2023-02-26T02:21:18.744Z,97648.53
2023-02-26T02:23:54.710Z,97649.13
2023-02-26T02:27:00.616Z,97646.94
2023-02-26T02:30:08.118Z,97656.63
2023-02-26T02:32:41.330Z,97651.47
2023-02-26T02:35:16.067Z,97648.53
2023-02-26T02:37:48.405Z,97658.44
2023-02-26T02:40:20.120Z,97665.50
2023-02-26T02:42:54.239Z,97667.94
2023-02-26T02:45:26.531Z,97665.75
2023-02-26T02:48:03.984Z,97664.16
2023-02-26T02:50:37.909Z,97667.88
2023-02-26T02:53:10.376Z,97669.16
2023-02-26T02:55:41.814Z,97676.47
2023-02-26T02:58:13.172Z,97672.78
2023-02-26T03:00:45.438Z,97678.09
2023-02-26T03:03:20.164Z,97672.69
2023-02-26T03:05:49.009Z,97682.34
2023-02-26T03:08:21.652Z,97683.97
2023-02-26T03:10:49.307Z,97681.81
2023-02-26T03:13:18.740Z,97679.94
2023-02-26T03:15:56.828Z,97686.63
2023-02-26T03:18:38.195Z,97683.88
2023-02-26T03:21:13.040Z,97688.78
2023-02-26T03:23:47.542Z,97695.00
2023-02-26T03:26:18.699Z,97701.50
2023-02-26T03:28:53.337Z,97706.06
2023-02-26T03:31:27.683Z,97703.41
2023-02-26T03:34:01.360Z,97719.03
2023-02-26T03:36:33.549Z,97713.16
2023-02-26T03:39:06.804Z,97713.63
2023-02-26T03:41:40.623Z,97714.75
2023-02-26T03:44:13.940Z,97715.31
2023-02-26T03:46:47.112Z,97717.47
2023-02-26T03:49:22.883Z,97724.97
2023-02-26T03:51:53.181Z,97729.50
2023-02-26T03:54:26.060Z,97727.66
2023-02-26T03:56:54.545Z,97730.31
2023-02-26T03:59:22.346Z,97725.03
2023-02-26T04:01:55.759Z,97728.44
2023-02-26T04:04:29.707Z,97738.69
2023-02-26T04:06:57.909Z,97738.44
2023-02-26T04:09:26.084Z,97744.34
2023-02-26T04:11:56.286Z,97746.44
2023-02-26T04:14:24.118Z,97750.13
2023-02-26T04:16:51.798Z,97752.22
2023-02-26T04:19:19.645Z,97754.00
2023-02-26T04:21:48.803Z,97756.13
2023-02-26T04:24:16.614Z,97757.75
2023-02-26T04:26:44.308Z,97761.75
2023-02-26T04:29:12.090Z,97766.50
2023-02-26T04:31:39.885Z,97768.72
2023-02-26T04:34:07.580Z,97768.63
2023-02-26T04:36:35.228Z,97777.47
2023-02-26T04:39:04.453Z,97776.13
2023-02-26T04:41:32.686Z,97774.47
2023-02-26T04:44:00.312Z,97785.19
2023-02-26T04:46:28.420Z,97787.34
2023-02-26T04:48:56.437Z,97788.94
2023-02-26T04:51:24.773Z,97799.16
2023-02-26T04:53:52.507Z,97796.34
2023-02-26T04:56:21.534Z,97794.75
2023-02-26T04:58:49.364Z,97800.25
2023-02-26T05:01:17.112Z,97803.97
2023-02-26T05:03:44.774Z,97803.56
2023-02-26T05:06:12.475Z,97810.78
2023-02-26T05:08:42.223Z,97818.25
2023-02-26T05:11:10.436Z,97820.34
2023-02-26T05:13:40.084Z,97816.28
2023-02-26T05:16:08.933Z,97825.28
2023-02-26T05:18:36.654Z,97823.22
2023-02-26T05:21:05.519Z,97825.41
2023-02-26T05:23:33.478Z,97828.59
2023-02-26T05:26:01.677Z,97824.22
2023-02-26T05:28:29.656Z,97831.69
2023-02-26T05:30:59.383Z,97831.81
2023-02-26T05:33:27.485Z,97838.22
2023-02-26T05:35:55.207Z,97832.81
2023-02-26T05:38:22.844Z,97836.09
2023-02-26T05:40:50.944Z,97830.34
2023-02-26T05:43:18.699Z,97831.19
2023-02-26T05:45:47.028Z,97836.47
2023-02-26T05:48:16.055Z,97840.25
2023-02-26T05:50:43.684Z,97841.28
2023-02-26T05:53:11.723Z,97841.34
2023-02-26T05:55:39.400Z,97844.53
2023-02-26T05:58:07.348Z,97840.81
2023-02-26T06:00:35.127Z,97844.75
2023-02-26T06:03:02.849Z,97847.72
2023-02-26T06:05:32.271Z,97860.59
2023-02-26T06:07:59.980Z,97867.84
2023-02-26T06:10:27.717Z,97859.28
2023-02-26T06:12:55.416Z,97865.69
2023-02-26T06:15:23.219Z,97865.97
2023-02-26T06:17:50.953Z,97863.00
2023-02-26T06:20:19.090Z,97881.50
2023-02-26T06:22:48.117Z,97878.28
2023-02-26T06:25:15.949Z,97886.78
2023-02-26T06:27:43.622Z,97879.28
2023-02-26T06:30:12.599Z,97883.94
2023-02-26T06:32:40.603Z,97886.84
2023-02-26T06:35:09.324Z,97880.97
2023-02-26T06:37:37.020Z,97879.91
2023-02-26T06:40:07.329Z,97894.28
2023-02-26T06:42:35.065Z,97894.91
2023-02-26T06:45:03.028Z,97900.19
2023-02-26T06:47:30.743Z,97907.69
2023-02-26T06:49:58.388Z,97914.50
2023-02-26T06:52:26.389Z,97913.06
2023-02-26T06:54:54.077Z,97922.09
2023-02-26T06:57:23.192Z,97927.88
2023-02-26T06:59:51.768Z,97933.09
2023-02-26T07:02:22.414Z,97939.47
2023-02-26T07:04:50.541Z,97944.28
2023-02-26T07:07:18.280Z,97946.38
2023-02-26T07:09:46.296Z,97951.78
2023-02-26T07:12:14.401Z,97958.22
2023-02-26T07:14:45.025Z,97967.91
2023-02-26T07:17:20.273Z,97974.06
2023-02-26T07:19:48.691Z,97976.31
2023-02-26T07:22:17.181Z,97976.44
2023-02-26T07:24:44.986Z,97983.94
2023-02-26T07:27:13.207Z,97978.81
2023-02-26T07:29:40.809Z,97985.44
2023-02-26T07:32:10.189Z,97996.19
2023-02-26T07:34:37.818Z,97990.50
2023-02-26T07:37:05.449Z,97992.31
2023-02-26T07:39:33.068Z,97995.38
2023-02-26T07:42:00.722Z,97993.47
2023-02-26T07:44:28.383Z,98010.59
2023-02-26T07:46:56.013Z,98010.59
2023-02-26T07:49:25.276Z,98000.84
2023-02-26T07:51:52.961Z,98008.53
2023-02-26T07:54:20.750Z,98011.22
2023-02-26T07:56:48.409Z,98012.66
2023-02-26T07:59:16.372Z,98016.75
2023-02-26T08:01:44.066Z,98019.16
2023-02-26T08:04:11.821Z,98025.63
2023-02-26T08:06:40.820Z,98025.47
2023-02-26T08:09:08.502Z,98026.22
2023-02-26T08:11:39.740Z,98036.13
2023-02-26T08:14:07.579Z,98036.38
2023-02-26T08:16:35.303Z,98045.56
2023-02-26T08:19:02.983Z,98037.56
2023-02-26T08:21:30.674Z,98044.41
2023-02-26T08:23:59.717Z,98047.63
2023-02-26T08:26:27.973Z,98049.53
2023-02-26T08:28:55.941Z,98048.34
2023-02-26T08:31:23.839Z,98053.34
2023-02-26T08:33:51.596Z,98047.06
2023-02-26T08:36:19.404Z,98055.97
2023-02-26T08:38:47.085Z,98049.91
2023-02-26T08:41:16.088Z,98055.16
2023-02-26T08:43:43.749Z,98061.81
2023-02-26T08:46:11.548Z,98076.06
2023-02-26T08:48:39.365Z,98083.66
2023-02-26T08:51:07.431Z,98082.38
2023-02-26T08:53:35.170Z,98091.91
2023-02-26T08:56:02.807Z,98100.50
2023-02-26T08:58:32.270Z,98097.72
2023-02-26T09:01:00.191Z,98094.53
2023-02-26T09:03:27.972Z,98113.00
2023-02-26T09:05:55.683Z,98106.66
2023-02-26T09:08:23.418Z,98109.19
2023-02-26T09:10:51.064Z,98114.44
2023-02-26T09:13:18.726Z,98112.84
2023-02-26T09:15:50.251Z,98123.97
2023-02-26T09:18:17.927Z,98128.22
2023-02-26T09:20:45.941Z,98120.94
2023-02-26T09:23:13.837Z,98125.41
2023-02-26T09:25:41.538Z,98135.59
2023-02-26T09:28:09.390Z,98137.00
2023-02-26T09:30:37.131Z,98128.84
2023-02-26T09:33:06.234Z,98132.53
2023-02-26T09:35:33.852Z,98134.91
2023-02-26T09:38:01.488Z,98143.06
2023-02-26T09:40:38.941Z,98144.22
2023-02-26T09:43:31.781Z,98150.75
2023-02-26T09:46:04.302Z,98155.09
2023-02-26T09:48:34.987Z,98149.13
2023-02-26T09:51:02.706Z,98162.28
2023-02-26T09:53:34.212Z,98171.34
2023-02-26T09:56:08.035Z,98167.81
2023-02-26T09:58:38.840Z,98174.75
2023-02-26T10:01:11.861Z,98178.09
2023-02-26T10:03:56.183Z,98170.63
2023-02-26T10:06:28.454Z,98183.19
2023-02-26T10:09:32.364Z,98184.47
2023-02-26T10:12:04.897Z,98190.72
2023-02-26T10:14:36.985Z,98194.19
2023-02-26T10:17:09.304Z,98192.97
2023-02-26T10:19:42.006Z,98197.47
2023-02-26T10:22:19.750Z,98204.31
2023-02-26T10:24:51.929Z,98197.28
2023-02-26T10:27:27.422Z,98207.47
2023-02-26T10:30:01.257Z,98200.38
2023-02-26T10:32:34.420Z,98203.50
2023-02-26T10:35:09.058Z,98210.47
2023-02-26T10:37:48.506Z,98207.94
2023-02-26T10:40:20.325Z,98209.00
2023-02-26T10:42:51.758Z,98212.84
2023-02-26T10:45:36.109Z,98221.91
2023-02-26T10:48:20.576Z,98212.91
2023-02-26T10:50:53.347Z,98210.56
2023-02-26T10:53:22.327Z,98200.75
2023-02-26T10:55:55.141Z,98211.75
2023-02-26T10:58:25.487Z,98210.63
2023-02-26T11:00:55.517Z,98218.91
2023-02-26T11:03:30.231Z,98222.44
2023-02-26T11:05:59.443Z,98217.22
2023-02-26T11:08:29.246Z,98215.09
2023-02-26T11:10:59.323Z,98219.66
2023-02-26T11:13:29.735Z,98215.88
2023-02-26T11:15:59.631Z,98205.25
2023-02-26T11:18:31.060Z,98225.38
2023-02-26T11:21:01.741Z,98226.19
2023-02-26T11:23:32.914Z,98225.06
2023-02-26T11:26:05.317Z,98210.16
2023-02-26T11:28:37.169Z,98226.81
2023-02-26T11:31:08.522Z,98211.91
2023-02-26T11:33:39.562Z,98214.06
2023-02-26T11:36:12.245Z,98206.53
2023-02-26T11:38:41.276Z,98197.09
2023-02-26T11:41:09.469Z,98204.66
2023-02-26T11:43:44.421Z,98198.41
2023-02-26T11:46:13.785Z,98207.31
2023-02-26T11:48:44.266Z,98216.91
2023-02-26T11:51:16.963Z,98212.63
2023-02-26T11:53:51.878Z,98213.31
2023-02-26T11:56:30.669Z,98206.63
2023-02-26T11:59:01.628Z,98188.66
2023-02-26T12:01:30.585Z,98192.94
2023-02-26T12:04:02.029Z,98199.50
2023-02-26T12:06:31.660Z,98197.56
2023-02-26T12:09:00.142Z,98194.72
2023-02-26T12:11:44.228Z,98190.88
2023-02-26T12:14:28.054Z,98200.28
2023-02-26T12:17:09.698Z,98188.94
2023-02-26T12:19:43.246Z,98182.13
2023-02-26T12:22:28.308Z,98191.94
2023-02-26T12:25:21.702Z,98187.94
2023-02-26T12:28:15.226Z,98190.75
2023-02-26T12:31:05.821Z,98203.72
2023-02-26T12:33:46.316Z,98189.41
2023-02-26T12:36:28.297Z,98193.50
2023-02-26T12:39:14.006Z,98183.31
2023-02-26T12:41:53.282Z,98206.44
2023-02-26T12:44:32.535Z,98212.59
2023-02-26T12:47:20.371Z,98208.56
2023-02-26T12:50:09.266Z,98209.75
2023-02-26T12:53:05.142Z,98214.25
2023-02-26T12:55:46.217Z,98216.47
2023-02-26T12:58:43.152Z,98217.38
2023-02-26T13:02:01.004Z,98214.13
2023-02-26T13:04:46.251Z,98208.25
2023-02-26T13:07:49.634Z,98211.03
2023-02-26T13:10:28.017Z,98215.75
2023-02-26T13:13:10.420Z,98219.16
2023-02-26T13:15:53.222Z,98224.84
2023-02-26T13:18:28.661Z,98221.25
2023-02-26T13:21:00.543Z,98218.13
2023-02-26T13:23:34.172Z,98220.63
2023-02-26T13:26:06.111Z,98209.75
2023-02-26T13:28:43.209Z,98229.44
2023-02-26T13:31:17.063Z,98228.75
2023-02-26T13:33:46.680Z,98235.84
2023-02-26T13:36:16.837Z,98231.69
2023-02-26T13:39:04.755Z,98243.66
2023-02-26T13:41:40.886Z,98237.66
2023-02-26T13:44:23.952Z,98241.44
2023-02-26T13:47:21.981Z,98239.53
2023-02-26T13:50:01.144Z,98229.78
2023-02-26T13:52:30.699Z,98235.56
2023-02-26T13:54:59.571Z,98230.16
2023-02-26T13:57:44.332Z,98236.34
2023-02-26T14:00:28.099Z,98236.94
2023-02-26T14:02:58.261Z,98243.34
2023-02-26T14:06:00.950Z,98251.16
2023-02-26T14:08:45.972Z,98244.16
2023-02-26T14:11:40.039Z,98242.44
2023-02-26T14:14:26.631Z,98251.03
2023-02-26T14:17:30.613Z,98259.66
2023-02-26T14:20:31.795Z,98262.97
2023-02-26T14:23:18.998Z,98260.69
2023-02-26T14:25:50.417Z,98258.59
2023-02-26T14:28:34.931Z,98255.31
2023-02-26T14:31:15.882Z,98258.88
2023-02-26T14:33:47.893Z,98265.47
2023-02-26T14:36:27.335Z,98275.91
2023-02-26T14:39:04.953Z,98280.88
2023-02-26T14:41:37.292Z,98282.09
2023-02-26T14:44:13.721Z,98275.75
2023-02-26T14:46:42.041Z,98286.22
2023-02-26T14:49:20.937Z,98299.28
2023-02-26T14:52:07.101Z,98303.06
2023-02-26T14:54:49.732Z,98291.91
2023-02-26T14:57:28.247Z,98295.34
2023-02-26T15:00:12.689Z,98293.44
2023-02-26T15:02:59.309Z,98298.56
2023-02-26T15:05:42.232Z,98295.75
2023-02-26T15:08:36.877Z,98311.81
2023-02-26T15:11:21.818Z,98315.38
2023-02-26T15:14:18.761Z,98328.44
2023-02-26T15:16:56.175Z,98326.66
2023-02-26T15:19:39.980Z,98329.91
2023-02-26T15:22:25.193Z,98331.75
2023-02-26T15:24:53.358Z,98337.47
2023-02-26T15:27:22.150Z,98335.06
2023-02-26T15:29:52.670Z,98346.41
2023-02-26T15:32:25.967Z,98351.06
2023-02-26T15:35:00.775Z,98345.41
2023-02-26T15:37:33.507Z,98355.00
2023-02-26T15:40:04.693Z,98360.84
2023-02-26T15:42:38.355Z,98358.19
2023-02-26T15:45:13.848Z,98363.00
2023-02-26T15:47:41.860Z,98372.09
2023-02-26T15:50:15.915Z,98373.22
2023-02-26T15:52:45.384Z,98370.50
2023-02-26T15:55:18.755Z,98371.22
2023-02-26T15:57:46.558Z,98380.94
2023-02-26T16:00:24.681Z,98380.44
2023-02-26T16:02:54.149Z,98384.50
2023-02-26T16:05:21.921Z,98386.47
2023-02-26T16:07:50.960Z,98385.94
2023-02-26T16:10:28.632Z,98388.91
2023-02-26T16:12:56.759Z,98391.41
2023-02-26T16:15:30.859Z,98394.78
2023-02-26T16:17:59.603Z,98397.97
2023-02-26T16:20:30.034Z,98404.16
2023-02-26T16:23:03.289Z,98398.13
2023-02-26T16:25:36.720Z,98400.34
2023-02-26T16:28:07.533Z,98407.84
2023-02-26T16:30:37.679Z,98413.28
2023-02-26T16:33:08.685Z,98411.66
2023-02-26T16:35:40.522Z,98423.47
2023-02-26T16:38:18.327Z,98428.91
2023-02-26T16:40:46.681Z,98432.44
2023-02-26T16:43:35.495Z,98435.94
2023-02-26T16:46:05.587Z,98440.28
2023-02-26T16:48:38.782Z,98448.34
2023-02-26T16:51:09.472Z,98451.00
2023-02-26T16:53:45.216Z,98460.16
2023-02-26T16:56:16.798Z,98456.38
2023-02-26T16:58:47.666Z,98456.94
2023-02-26T17:01:19.041Z,98461.22
2023-02-26T17:03:49.395Z,98473.84
2023-02-26T17:06:20.331Z,98471.19
2023-02-26T17:08:52.327Z,98468.78
2023-02-26T17:11:25.126Z,98481.69
2023-02-26T17:14:07.978Z,98481.69
2023-02-26T17:16:35.686Z,98490.28
2023-02-26T17:19:03.580Z,98484.09
2023-02-26T17:21:32.648Z,98500.47
2023-02-26T17:24:01.850Z,98511.75
2023-02-26T17:26:29.766Z,98498.38
2023-02-26T17:28:57.891Z,98512.59
2023-02-26T17:31:26.367Z,98510.72
2023-02-26T17:33:54.618Z,98515.53
2023-02-26T17:36:22.590Z,98518.75
2023-02-26T17:38:50.498Z,98516.63
2023-02-26T17:41:20.024Z,98515.00
2023-02-26T17:43:47.779Z,98521.75
2023-02-26T17:46:15.545Z,98526.28
2023-02-26T17:48:43.234Z,98517.97
2023-02-26T17:51:13.753Z,98535.94
2023-02-26T17:53:42.274Z,98533.28
2023-02-26T17:56:13.012Z,98539.72
2023-02-26T17:58:42.744Z,98533.28
2023-02-26T18:01:11.256Z,98539.69
2023-02-26T18:03:39.833Z,98542.94
2023-02-26T18:06:08.409Z,98547.75
2023-02-26T18:08:36.129Z,98549.63
2023-02-26T18:11:05.268Z,98555.53
2023-02-26T18:13:33.517Z,98558.50
2023-02-26T18:16:03.566Z,98553.94
2023-02-26T18:18:33.300Z,98566.56
2023-02-26T18:21:01.417Z,98557.44
2023-02-26T18:23:29.030Z,98556.34
2023-02-26T18:25:57.210Z,98554.72
2023-02-26T18:28:26.548Z,98552.03
2023-02-26T18:30:55.672Z,98552.03
2023-02-26T18:33:25.657Z,98557.41
2023-02-26T18:35:56.647Z,98556.34
2023-02-26T18:38:28.254Z,98558.78
2023-02-26T18:40:56.086Z,98567.63
2023-02-26T18:43:23.762Z,98573.50
2023-02-26T18:45:53.034Z,98566.00
2023-02-26T18:48:22.231Z,98580.22
2023-02-26T18:50:51.444Z,98575.38
2023-02-26T18:53:23.163Z,98578.56
2023-02-26T18:55:52.734Z,98582.06
2023-02-26T18:58:20.808Z,98591.22
2023-02-26T19:00:48.573Z,98606.75
2023-02-26T19:03:16.354Z,98593.88
2023-02-26T19:05:44.188Z,98599.78
2023-02-26T19:08:13.285Z,98604.56
2023-02-26T19:10:40.996Z,98604.03
2023-02-26T19:13:08.994Z,98603.53
2023-02-26T19:15:36.785Z,98615.34
2023-02-26T19:18:04.727Z,98619.38
2023-02-26T19:20:32.477Z,98611.06
2023-02-26T19:23:00.955Z,98618.56
2023-02-26T19:25:30.951Z,98625.22
2023-02-26T19:27:58.636Z,98613.41
2023-02-26T19:30:26.413Z,98615.88
2023-02-26T19:32:54.890Z,98620.13
2023-02-26T19:35:26.934Z,98628.19
2023-02-26T19:37:55.222Z,98621.72
2023-02-26T19:40:23.133Z,98637.25
2023-02-26T19:42:52.301Z,98634.59
2023-02-26T19:45:20.391Z,98639.44
2023-02-26T19:47:48.108Z,98645.31
2023-02-26T19:50:16.796Z,98637.22
2023-02-26T19:52:44.554Z,98652.75
2023-02-26T19:55:14.383Z,98641.19
2023-02-26T19:57:42.149Z,98650.91
2023-02-26T20:00:14.156Z,98646.84
2023-02-26T20:02:42.993Z,98657.56
2023-02-26T20:05:16.763Z,98655.94
2023-02-26T20:07:45.256Z,98657.00
2023-02-26T20:10:15.621Z,98671.44
2023-02-26T20:12:44.030Z,98673.06
2023-02-26T20:15:14.026Z,98670.94
2023-02-26T20:17:42.027Z,98665.53
2023-02-26T20:20:11.023Z,98669.28
2023-02-26T20:22:38.760Z,98669.53
2023-02-26T20:25:07.333Z,98676.78
2023-02-26T20:27:36.381Z,98672.44
2023-02-26T20:30:04.469Z,98673.03
2023-02-26T20:32:33.612Z,98674.63
2023-02-26T20:35:01.368Z,98670.84
2023-02-26T20:37:29.101Z,98674.63
2023-02-26T20:39:56.839Z,98675.16
2023-02-26T20:42:24.749Z,98683.69
2023-02-26T20:44:52.481Z,98677.28
2023-02-26T20:47:20.419Z,98672.44
2023-02-26T20:49:49.650Z,98687.94
2023-02-26T20:52:17.438Z,98685.81
2023-02-26T20:54:45.726Z,98683.16
2023-02-26T20:57:13.517Z,98678.84
2023-02-26T20:59:41.244Z,98680.97
2023-02-26T21:02:11.600Z,98682.06
2023-02-26T21:04:39.441Z,98682.66
2023-02-26T21:07:17.532Z,98688.97
2023-02-26T21:09:47.914Z,98681.75
2023-02-26T21:12:16.087Z,98679.38
2023-02-26T21:14:44.152Z,98682.00
2023-02-26T21:17:12.531Z,98686.34
2023-02-26T21:19:40.685Z,98690.63
2023-02-26T21:22:10.090Z,98688.47
2023-02-26T21:24:38.174Z,98691.09
2023-02-26T21:27:06.385Z,98694.41
2023-02-26T21:29:34.415Z,98693.81
2023-02-26T21:32:03.636Z,98703.44
2023-02-26T21:34:34.329Z,98701.81
2023-02-26T21:37:02.807Z,98696.41
2023-02-26T21:39:32.688Z,98695.34
2023-02-26T21:42:03.814Z,98700.94
2023-02-26T21:44:33.391Z,98699.66
2023-02-26T21:47:01.791Z,98700.13
2023-02-26T21:49:31.920Z,98692.16
2023-02-26T21:52:00.815Z,98703.88
2023-02-26T21:54:28.997Z,98698.81
2023-02-26T21:56:59.333Z,98705.50
2023-02-26T21:59:27.332Z,98706.59
2023-02-26T22:01:55.430Z,98703.81
2023-02-26T22:04:23.584Z,98699.88
2023-02-26T22:06:52.829Z,98705.50
2023-02-26T22:09:21.272Z,98700.34
2023-02-26T22:11:49.082Z,98706.56
2023-02-26T22:14:18.313Z,98713.78
2023-02-26T22:16:48.153Z,98713.53
2023-02-26T22:19:15.894Z,98721.56
2023-02-26T22:21:43.664Z,98710.03
2023-02-26T22:24:11.645Z,98719.59
2023-02-26T22:26:39.602Z,98716.22
2023-02-26T22:29:07.393Z,98721.00
2023-02-26T22:31:36.596Z,98710.66
2023-02-26T22:34:04.387Z,98718.84
2023-02-26T22:36:32.243Z,98719.66
2023-02-26T22:39:00.016Z,98716.16
2023-02-26T22:41:27.795Z,98726.94
2023-02-26T22:43:55.465Z,98720.56
2023-02-26T22:46:24.312Z,98730.47
2023-02-26T22:48:53.757Z,98721.53
2023-02-26T22:51:21.562Z,98728.25
2023-02-26T22:53:49.320Z,98731.72
2023-02-26T22:56:17.034Z,98736.84
2023-02-26T22:58:45.013Z,98732.78
2023-02-26T23:01:12.685Z,98735.97
2023-02-26T23:03:40.423Z,98743.94
2023-02-26T23:06:10.214Z,98745.69
2023-02-26T23:08:37.963Z,98746.44
2023-02-26T23:11:06.501Z,98748.78
2023-02-26T23:13:35.584Z,98752.28
2023-02-26T23:16:04.272Z,98754.72
2023-02-26T23:18:33.037Z,98750.94
2023-02-26T23:21:01.038Z,98754.41
2023-02-26T23:23:30.246Z,98756.81
2023-02-26T23:25:57.951Z,98753.91
2023-02-26T23:28:25.665Z,98746.94
2023-02-26T23:30:53.357Z,98746.38
2023-02-26T23:33:21.024Z,98753.03
2023-02-26T23:35:49.475Z,98753.09
2023-02-26T23:38:17.455Z,98753.41
2023-02-26T23:40:46.527Z,98756.34
2023-02-26T23:43:14.138Z,98749.38
2023-02-26T23:45:41.798Z,98754.16
2023-02-26T23:48:09.459Z,98747.69
2023-02-26T23:50:37.160Z,98749.28
2023-02-26T23:53:04.994Z,98753.84
2023-02-26T23:55:32.704Z,98752.78
2023-02-26T23:58:01.875Z,98744.13
